sensor_id;sensor_type;location;lat;lon;timestamp;P1;durP1;ratioP1;P2;durP2;ratioP2
27265;SDS011;14766;51.380;13.762;2022-09-23T00:01:17;2.50;;;1.42;;
27265;SDS011;14766;51.380;13.762;2022-09-23T00:03:44;1.60;;;1.30;;
27265;SDS011;14766;51.380;13.762;2022-09-23T00:06:14;1.80;;;1.30;;
27265;SDS011;14766;51.380;13.762;2022-09-23T00:08:46;1.20;;;1.10;;
27265;SDS011;14766;51.380;13.762;2022-09-23T00:11:18;2.03;;;1.55;;
27265;SDS011;14766;51.380;13.762;2022-09-23T00:13:48;2.47;;;1.33;;
27265;SDS011;14766;51.380;13.762;2022-09-23T00:16:18;4.60;;;2.03;;
27265;SDS011;14766;51.380;13.762;2022-09-23T00:18:48;2.08;;;1.20;;
27265;SDS011;14766;51.380;13.762;2022-09-23T00:21:16;1.25;;;1.15;;
27265;SDS011;14766;51.380;13.762;2022-09-23T00:23:45;1.60;;;1.45;;
27265;SDS011;14766;51.380;13.762;2022-09-23T00:26:14;1.63;;;1.42;;
27265;SDS011;14766;51.380;13.762;2022-09-23T00:28:42;1.38;;;1.15;;
27265;SDS011;14766;51.380;13.762;2022-09-23T00:31:11;1.40;;;1.20;;
27265;SDS011;14766;51.380;13.762;2022-09-23T00:33:40;3.50;;;1.73;;
27265;SDS011;14766;51.380;13.762;2022-09-23T00:36:09;2.53;;;1.48;;
27265;SDS011;14766;51.380;13.762;2022-09-23T00:38:44;2.17;;;1.52;;
27265;SDS011;14766;51.380;13.762;2022-09-23T00:41:12;3.72;;;1.50;;
27265;SDS011;14766;51.380;13.762;2022-09-23T00:43:44;2.10;;;1.70;;
27265;SDS011;14766;51.380;13.762;2022-09-23T00:49:14;1.75;;;1.58;;
27265;SDS011;14766;51.380;13.762;2022-09-23T00:51:57;2.92;;;1.48;;
27265;SDS011;14766;51.380;13.762;2022-09-23T00:54:32;1.80;;;1.50;;
27265;SDS011;14766;51.380;13.762;2022-09-23T00:56:59;2.20;;;1.60;;
27265;SDS011;14766;51.380;13.762;2022-09-23T00:59:27;2.38;;;1.50;;
27265;SDS011;14766;51.380;13.762;2022-09-23T01:01:55;2.58;;;1.48;;
27265;SDS011;14766;51.380;13.762;2022-09-23T01:04:25;2.35;;;1.50;;
27265;SDS011;14766;51.380;13.762;2022-09-23T01:06:53;1.52;;;1.30;;
27265;SDS011;14766;51.380;13.762;2022-09-23T01:09:20;1.50;;;1.40;;
27265;SDS011;14766;51.380;13.762;2022-09-23T01:11:56;2.78;;;1.88;;
27265;SDS011;14766;51.380;13.762;2022-09-23T01:17:38;3.08;;;1.40;;
27265;SDS011;14766;51.380;13.762;2022-09-23T01:37:37;2.38;;;1.38;;
27265;SDS011;14766;51.380;13.762;2022-09-23T01:40:24;1.67;;;1.58;;
27265;SDS011;14766;51.380;13.762;2022-09-23T01:43:15;2.85;;;1.45;;
27265;SDS011;14766;51.380;13.762;2022-09-23T01:45:53;2.95;;;1.92;;
27265;SDS011;14766;51.380;13.762;2022-09-23T01:51:01;2.15;;;1.50;;
27265;SDS011;14766;51.380;13.762;2022-09-23T01:53:44;2.75;;;1.67;;
27265;SDS011;14766;51.380;13.762;2022-09-23T01:56:19;1.42;;;1.33;;
27265;SDS011;14766;51.380;13.762;2022-09-23T01:59:07;2.00;;;1.40;;
27265;SDS011;14766;51.380;13.762;2022-09-23T02:01:51;1.67;;;1.50;;
27265;SDS011;14766;51.380;13.762;2022-09-23T02:04:24;2.78;;;1.33;;
27265;SDS011;14766;51.380;13.762;2022-09-23T02:07:07;2.60;;;1.60;;
27265;SDS011;14766;51.380;13.762;2022-09-23T02:09:41;1.92;;;1.60;;
27265;SDS011;14766;51.380;13.762;2022-09-23T02:12:15;2.03;;;1.50;;
27265;SDS011;14766;51.380;13.762;2022-09-23T02:17:23;1.98;;;1.48;;
27265;SDS011;14766;51.380;13.762;2022-09-23T02:20:00;3.03;;;1.38;;
27265;SDS011;14766;51.380;13.762;2022-09-23T02:22:38;2.08;;;1.50;;
27265;SDS011;14766;51.380;13.762;2022-09-23T02:25:09;2.72;;;1.70;;
27265;SDS011;14766;51.380;13.762;2022-09-23T02:27:39;2.97;;;1.50;;
27265;SDS011;14766;51.380;13.762;2022-09-23T02:30:14;2.53;;;1.60;;
27265;SDS011;14766;51.380;13.762;2022-09-23T02:35:59;2.05;;;1.75;;
27265;SDS011;14766;51.380;13.762;2022-09-23T02:41:27;3.80;;;1.90;;
27265;SDS011;14766;51.380;13.762;2022-09-23T02:44:03;2.75;;;1.80;;
27265;SDS011;14766;51.380;13.762;2022-09-23T02:46:35;3.60;;;1.70;;
27265;SDS011;14766;51.380;13.762;2022-09-23T02:49:08;2.67;;;2.00;;
27265;SDS011;14766;51.380;13.762;2022-09-23T02:51:49;2.13;;;1.85;;
27265;SDS011;14766;51.380;13.762;2022-09-23T02:54:17;2.38;;;1.70;;
27265;SDS011;14766;51.380;13.762;2022-09-23T02:56:46;2.58;;;1.50;;
27265;SDS011;14766;51.380;13.762;2022-09-23T02:59:18;2.78;;;1.80;;
27265;SDS011;14766;51.380;13.762;2022-09-23T03:05:04;2.90;;;1.80;;
27265;SDS011;14766;51.380;13.762;2022-09-23T03:15:52;1.77;;;1.40;;
27265;SDS011;14766;51.380;13.762;2022-09-23T03:18:36;1.98;;;1.60;;
27265;SDS011;14766;51.380;13.762;2022-09-23T03:21:23;1.88;;;1.60;;
27265;SDS011;14766;51.380;13.762;2022-09-23T03:23:55;1.70;;;1.50;;
27265;SDS011;14766;51.380;13.762;2022-09-23T03:26:27;2.75;;;1.85;;
27265;SDS011;14766;51.380;13.762;2022-09-23T03:28:57;2.78;;;2.00;;
27265;SDS011;14766;51.380;13.762;2022-09-23T03:31:28;1.95;;;1.60;;
27265;SDS011;14766;51.380;13.762;2022-09-23T03:33:56;2.40;;;1.80;;
27265;SDS011;14766;51.380;13.762;2022-09-23T03:36:37;2.10;;;1.67;;
27265;SDS011;14766;51.380;13.762;2022-09-23T03:39:31;2.10;;;1.60;;
27265;SDS011;14766;51.380;13.762;2022-09-23T03:42:15;2.40;;;1.60;;
27265;SDS011;14766;51.380;13.762;2022-09-23T03:44:47;2.65;;;1.95;;
27265;SDS011;14766;51.380;13.762;2022-09-23T03:47:18;3.10;;;2.00;;
27265;SDS011;14766;51.380;13.762;2022-09-23T03:49:47;3.15;;;1.80;;
27265;SDS011;14766;51.380;13.762;2022-09-23T03:52:16;2.17;;;1.60;;
27265;SDS011;14766;51.380;13.762;2022-09-23T03:54:44;1.70;;;1.60;;
27265;SDS011;14766;51.380;13.762;2022-09-23T03:57:12;1.63;;;1.52;;
27265;SDS011;14766;51.380;13.762;2022-09-23T03:59:40;3.60;;;1.80;;
27265;SDS011;14766;51.380;13.762;2022-09-23T04:02:07;2.70;;;1.77;;
27265;SDS011;14766;51.380;13.762;2022-09-23T04:04:35;2.58;;;1.80;;
27265;SDS011;14766;51.380;13.762;2022-09-23T04:07:03;3.47;;;1.90;;
27265;SDS011;14766;51.380;13.762;2022-09-23T04:09:30;3.28;;;2.05;;
27265;SDS011;14766;51.380;13.762;2022-09-23T04:11:58;2.22;;;1.80;;
27265;SDS011;14766;51.380;13.762;2022-09-23T04:14:26;2.00;;;1.73;;
27265;SDS011;14766;51.380;13.762;2022-09-23T04:16:53;4.20;;;1.85;;
27265;SDS011;14766;51.380;13.762;2022-09-23T04:19:20;2.75;;;1.77;;
27265;SDS011;14766;51.380;13.762;2022-09-23T04:21:47;2.28;;;1.98;;
27265;SDS011;14766;51.380;13.762;2022-09-23T04:24:14;5.35;;;2.00;;
27265;SDS011;14766;51.380;13.762;2022-09-23T04:26:42;2.22;;;1.67;;
27265;SDS011;14766;51.380;13.762;2022-09-23T04:29:09;2.03;;;1.83;;
27265;SDS011;14766;51.380;13.762;2022-09-23T04:31:37;2.40;;;2.00;;
27265;SDS011;14766;51.380;13.762;2022-09-23T04:34:05;2.38;;;2.05;;
27265;SDS011;14766;51.380;13.762;2022-09-23T04:36:32;3.63;;;2.35;;
27265;SDS011;14766;51.380;13.762;2022-09-23T04:39:00;2.78;;;1.85;;
27265;SDS011;14766;51.380;13.762;2022-09-23T04:41:27;2.40;;;1.90;;
27265;SDS011;14766;51.380;13.762;2022-09-23T04:43:55;2.97;;;2.40;;
27265;SDS011;14766;51.380;13.762;2022-09-23T04:46:22;3.75;;;2.38;;
27265;SDS011;14766;51.380;13.762;2022-09-23T04:48:50;2.22;;;1.77;;
27265;SDS011;14766;51.380;13.762;2022-09-23T04:51:18;3.35;;;1.85;;
27265;SDS011;14766;51.380;13.762;2022-09-23T04:53:47;3.58;;;2.00;;
27265;SDS011;14766;51.380;13.762;2022-09-23T04:56:16;2.10;;;1.90;;
27265;SDS011;14766;51.380;13.762;2022-09-23T04:58:46;2.30;;;2.10;;
27265;SDS011;14766;51.380;13.762;2022-09-23T05:03:41;3.78;;;2.03;;
27265;SDS011;14766;51.380;13.762;2022-09-23T05:06:10;5.45;;;2.50;;
27265;SDS011;14766;51.380;13.762;2022-09-23T05:08:49;2.65;;;2.00;;
27265;SDS011;14766;51.380;13.762;2022-09-23T05:11:17;2.25;;;2.03;;
27265;SDS011;14766;51.380;13.762;2022-09-23T05:13:48;2.95;;;2.20;;
27265;SDS011;14766;51.380;13.762;2022-09-23T05:16:18;2.20;;;1.92;;
27265;SDS011;14766;51.380;13.762;2022-09-23T05:18:47;3.20;;;2.20;;
27265;SDS011;14766;51.380;13.762;2022-09-23T05:21:15;2.85;;;2.30;;
27265;SDS011;14766;51.380;13.762;2022-09-23T05:23:52;3.20;;;2.17;;
27265;SDS011;14766;51.380;13.762;2022-09-23T05:26:21;2.78;;;2.17;;
27265;SDS011;14766;51.380;13.762;2022-09-23T05:28:51;4.25;;;2.00;;
27265;SDS011;14766;51.380;13.762;2022-09-23T05:31:23;3.25;;;2.25;;
27265;SDS011;14766;51.380;13.762;2022-09-23T05:34:03;3.38;;;2.38;;
27265;SDS011;14766;51.380;13.762;2022-09-23T05:36:32;3.28;;;2.58;;
27265;SDS011;14766;51.380;13.762;2022-09-23T05:39:04;24.13;;;13.65;;
27265;SDS011;14766;51.380;13.762;2022-09-23T05:41:32;23.30;;;13.20;;
27265;SDS011;14766;51.380;13.762;2022-09-23T05:44:00;21.65;;;12.05;;
27265;SDS011;14766;51.380;13.762;2022-09-23T05:46:28;13.98;;;8.48;;
27265;SDS011;14766;51.380;13.762;2022-09-23T05:48:57;12.68;;;8.05;;
27265;SDS011;14766;51.380;13.762;2022-09-23T05:51:29;10.18;;;4.97;;
27265;SDS011;14766;51.380;13.762;2022-09-23T05:53:57;6.93;;;4.80;;
27265;SDS011;14766;51.380;13.762;2022-09-23T05:56:26;5.88;;;4.68;;
27265;SDS011;14766;51.380;13.762;2022-09-23T05:59:08;6.35;;;3.25;;
27265;SDS011;14766;51.380;13.762;2022-09-23T06:01:38;3.17;;;2.65;;
27265;SDS011;14766;51.380;13.762;2022-09-23T06:04:06;3.60;;;2.45;;
27265;SDS011;14766;51.380;13.762;2022-09-23T06:06:39;3.60;;;2.63;;
27265;SDS011;14766;51.380;13.762;2022-09-23T06:09:09;9.73;;;3.10;;
27265;SDS011;14766;51.380;13.762;2022-09-23T06:11:41;2.58;;;2.30;;
27265;SDS011;14766;51.380;13.762;2022-09-23T06:14:10;3.25;;;2.50;;
27265;SDS011;14766;51.380;13.762;2022-09-23T06:16:41;3.65;;;2.78;;
27265;SDS011;14766;51.380;13.762;2022-09-23T06:19:08;3.92;;;2.50;;
27265;SDS011;14766;51.380;13.762;2022-09-23T06:21:36;4.63;;;2.30;;
27265;SDS011;14766;51.380;13.762;2022-09-23T06:24:05;6.75;;;2.70;;
27265;SDS011;14766;51.380;13.762;2022-09-23T06:26:34;3.20;;;2.42;;
27265;SDS011;14766;51.380;13.762;2022-09-23T06:29:08;4.07;;;2.30;;
27265;SDS011;14766;51.380;13.762;2022-09-23T06:31:39;3.38;;;2.55;;
27265;SDS011;14766;51.380;13.762;2022-09-23T06:34:11;4.90;;;2.45;;
27265;SDS011;14766;51.380;13.762;2022-09-23T06:36:41;3.30;;;2.53;;
27265;SDS011;14766;51.380;13.762;2022-09-23T06:39:14;2.92;;;2.38;;
27265;SDS011;14766;51.380;13.762;2022-09-23T06:41:42;3.22;;;2.20;;
27265;SDS011;14766;51.380;13.762;2022-09-23T06:44:13;3.55;;;2.47;;
27265;SDS011;14766;51.380;13.762;2022-09-23T06:46:40;2.60;;;2.40;;
27265;SDS011;14766;51.380;13.762;2022-09-23T06:49:07;3.78;;;2.30;;
27265;SDS011;14766;51.380;13.762;2022-09-23T06:51:34;2.70;;;2.50;;
27265;SDS011;14766;51.380;13.762;2022-09-23T06:54:02;4.47;;;2.80;;
27265;SDS011;14766;51.380;13.762;2022-09-23T06:56:29;4.35;;;2.55;;
27265;SDS011;14766;51.380;13.762;2022-09-23T06:59:03;2.43;;;2.23;;
27265;SDS011;14766;51.380;13.762;2022-09-23T07:01:30;2.97;;;2.35;;
27265;SDS011;14766;51.380;13.762;2022-09-23T07:03:58;3.22;;;2.45;;
27265;SDS011;14766;51.380;13.762;2022-09-23T07:06:27;2.80;;;2.60;;
27265;SDS011;14766;51.380;13.762;2022-09-23T07:08:54;3.08;;;2.55;;
27265;SDS011;14766;51.380;13.762;2022-09-23T07:11:21;2.90;;;2.60;;
27265;SDS011;14766;51.380;13.762;2022-09-23T07:13:48;3.28;;;2.50;;
27265;SDS011;14766;51.380;13.762;2022-09-23T07:16:16;2.42;;;2.20;;
27265;SDS011;14766;51.380;13.762;2022-09-23T07:18:43;3.13;;;2.63;;
27265;SDS011;14766;51.380;13.762;2022-09-23T07:21:15;2.65;;;2.30;;
27265;SDS011;14766;51.380;13.762;2022-09-23T07:23:44;2.90;;;2.40;;
27265;SDS011;14766;51.380;13.762;2022-09-23T07:26:19;4.28;;;2.65;;
27265;SDS011;14766;51.380;13.762;2022-09-23T07:28:46;4.32;;;2.88;;
27265;SDS011;14766;51.380;13.762;2022-09-23T07:31:14;4.50;;;3.28;;
27265;SDS011;14766;51.380;13.762;2022-09-23T07:33:58;3.97;;;2.58;;
27265;SDS011;14766;51.380;13.762;2022-09-23T07:36:26;3.05;;;2.45;;
27265;SDS011;14766;51.380;13.762;2022-09-23T07:38:57;3.13;;;2.60;;
27265;SDS011;14766;51.380;13.762;2022-09-23T07:41:28;2.50;;;2.30;;
27265;SDS011;14766;51.380;13.762;2022-09-23T07:43:56;2.85;;;2.28;;
27265;SDS011;14766;51.380;13.762;2022-09-23T07:46:27;2.85;;;2.53;;
27265;SDS011;14766;51.380;13.762;2022-09-23T07:48:56;2.08;;;1.88;;
27265;SDS011;14766;51.380;13.762;2022-09-23T07:51:25;2.70;;;1.90;;
27265;SDS011;14766;51.380;13.762;2022-09-23T07:54:02;2.47;;;1.90;;
27265;SDS011;14766;51.380;13.762;2022-09-23T07:56:33;2.47;;;2.05;;
27265;SDS011;14766;51.380;13.762;2022-09-23T07:59:01;2.38;;;1.80;;
27265;SDS011;14766;51.380;13.762;2022-09-23T08:01:34;3.40;;;2.03;;
27265;SDS011;14766;51.380;13.762;2022-09-23T08:04:14;2.53;;;2.30;;
27265;SDS011;14766;51.380;13.762;2022-09-23T08:06:47;2.60;;;2.03;;
27265;SDS011;14766;51.380;13.762;2022-09-23T08:09:26;2.22;;;1.70;;
27265;SDS011;14766;51.380;13.762;2022-09-23T08:11:55;2.53;;;2.05;;
27265;SDS011;14766;51.380;13.762;2022-09-23T08:14:23;2.85;;;2.05;;
27265;SDS011;14766;51.380;13.762;2022-09-23T08:16:50;2.65;;;2.10;;
27265;SDS011;14766;51.380;13.762;2022-09-23T08:19:17;2.70;;;2.17;;
27265;SDS011;14766;51.380;13.762;2022-09-23T08:21:45;4.80;;;1.83;;
27265;SDS011;14766;51.380;13.762;2022-09-23T08:24:14;1.85;;;1.52;;
27265;SDS011;14766;51.380;13.762;2022-09-23T08:26:43;2.55;;;1.52;;
27265;SDS011;14766;51.380;13.762;2022-09-23T08:29:14;1.70;;;1.60;;
27265;SDS011;14766;51.380;13.762;2022-09-23T08:31:43;1.75;;;1.42;;
27265;SDS011;14766;51.380;13.762;2022-09-23T08:34:12;1.58;;;1.38;;
27265;SDS011;14766;51.380;13.762;2022-09-23T08:36:40;1.58;;;1.40;;
27265;SDS011;14766;51.380;13.762;2022-09-23T08:39:09;1.90;;;1.30;;
27265;SDS011;14766;51.380;13.762;2022-09-23T08:41:46;2.63;;;1.50;;
27265;SDS011;14766;51.380;13.762;2022-09-23T08:44:37;2.05;;;1.42;;
27265;SDS011;14766;51.380;13.762;2022-09-23T08:50:06;1.38;;;1.23;;
27265;SDS011;14766;51.380;13.762;2022-09-23T08:52:49;1.90;;;1.35;;
27265;SDS011;14766;51.380;13.762;2022-09-23T09:03:55;1.67;;;1.42;;
27265;SDS011;14766;51.380;13.762;2022-09-23T09:06:28;1.75;;;1.40;;
27265;SDS011;14766;51.380;13.762;2022-09-23T09:11:55;1.67;;;1.23;;
27265;SDS011;14766;51.380;13.762;2022-09-23T09:17:06;1.48;;;1.33;;
27265;SDS011;14766;51.380;13.762;2022-09-23T09:22:27;1.50;;;1.23;;
27265;SDS011;14766;51.380;13.762;2022-09-23T09:30:51;1.88;;;1.30;;
27265;SDS011;14766;51.380;13.762;2022-09-23T09:33:43;2.65;;;1.30;;
27265;SDS011;14766;51.380;13.762;2022-09-23T09:36:20;3.05;;;1.60;;
27265;SDS011;14766;51.380;13.762;2022-09-23T09:38:57;1.95;;;1.40;;
27265;SDS011;14766;51.380;13.762;2022-09-23T09:41:25;1.63;;;1.30;;
27265;SDS011;14766;51.380;13.762;2022-09-23T09:43:57;2.17;;;1.40;;
27265;SDS011;14766;51.380;13.762;2022-09-23T09:46:34;1.35;;;1.10;;
27265;SDS011;14766;51.380;13.762;2022-09-23T09:49:17;2.28;;;1.40;;
27265;SDS011;14766;51.380;13.762;2022-09-23T09:52:03;2.00;;;1.27;;
27265;SDS011;14766;51.380;13.762;2022-09-23T09:54:41;1.60;;;1.15;;
27265;SDS011;14766;51.380;13.762;2022-09-23T09:57:23;2.60;;;1.15;;
27265;SDS011;14766;51.380;13.762;2022-09-23T10:00:15;1.77;;;1.42;;
27265;SDS011;14766;51.380;13.762;2022-09-23T10:02:44;1.67;;;1.55;;
27265;SDS011;14766;51.380;13.762;2022-09-23T10:08:19;5.13;;;1.55;;
27265;SDS011;14766;51.380;13.762;2022-09-23T10:11:01;2.33;;;1.70;;
27265;SDS011;14766;51.380;13.762;2022-09-23T10:13:33;2.05;;;1.48;;
27265;SDS011;14766;51.380;13.762;2022-09-23T10:16:01;2.58;;;1.40;;
27265;SDS011;14766;51.380;13.762;2022-09-23T10:18:33;2.08;;;1.50;;
27265;SDS011;14766;51.380;13.762;2022-09-23T10:21:07;1.58;;;1.45;;
27265;SDS011;14766;51.380;13.762;2022-09-23T10:23:49;1.85;;;1.50;;
27265;SDS011;14766;51.380;13.762;2022-09-23T10:26:27;1.75;;;1.30;;
27265;SDS011;14766;51.380;13.762;2022-09-23T10:29:28;1.83;;;1.65;;
27265;SDS011;14766;51.380;13.762;2022-09-23T10:32:42;2.70;;;1.55;;
27265;SDS011;14766;51.380;13.762;2022-09-23T10:35:19;2.38;;;1.48;;
27265;SDS011;14766;51.380;13.762;2022-09-23T10:37:49;1.65;;;1.30;;
27265;SDS011;14766;51.380;13.762;2022-09-23T10:40:54;2.00;;;1.63;;
27265;SDS011;14766;51.380;13.762;2022-09-23T10:46:37;1.60;;;1.50;;
27265;SDS011;14766;51.380;13.762;2022-09-23T11:14:40;1.55;;;1.00;;
27265;SDS011;14766;51.380;13.762;2022-09-23T11:20:21;1.20;;;1.02;;
27265;SDS011;14766;51.380;13.762;2022-09-23T11:26:41;1.67;;;1.17;;
27265;SDS011;14766;51.380;13.762;2022-09-23T11:35:08;1.67;;;1.55;;
27265;SDS011;14766;51.380;13.762;2022-09-23T11:37:39;1.20;;;1.10;;
27265;SDS011;14766;51.380;13.762;2022-09-23T11:40:44;1.20;;;1.10;;
27265;SDS011;14766;51.380;13.762;2022-09-23T11:43:18;1.40;;;1.05;;
27265;SDS011;14766;51.380;13.762;2022-09-23T11:46:03;1.50;;;1.40;;
27265;SDS011;14766;51.380;13.762;2022-09-23T11:49:09;1.30;;;0.73;;
27265;SDS011;14766;51.380;13.762;2022-09-23T11:57:23;2.03;;;0.90;;
27265;SDS011;14766;51.380;13.762;2022-09-23T12:03:47;1.77;;;1.15;;
27265;SDS011;14766;51.380;13.762;2022-09-23T12:06:53;1.85;;;1.63;;
27265;SDS011;14766;51.380;13.762;2022-09-23T12:09:14;1.45;;;1.20;;
27265;SDS011;14766;51.380;13.762;2022-09-23T12:12:12;1.42;;;0.98;;
27265;SDS011;14766;51.380;13.762;2022-09-23T12:26:06;3.28;;;1.23;;
27265;SDS011;14766;51.380;13.762;2022-09-23T12:28:43;1.33;;;1.23;;
27265;SDS011;14766;51.380;13.762;2022-09-23T12:31:15;1.42;;;1.00;;
27265;SDS011;14766;51.380;13.762;2022-09-23T12:33:51;1.52;;;0.93;;
27265;SDS011;14766;51.380;13.762;2022-09-23T12:36:28;3.47;;;1.10;;
27265;SDS011;14766;51.380;13.762;2022-09-23T12:39:05;1.10;;;1.00;;
27265;SDS011;14766;51.380;13.762;2022-09-23T12:41:45;0.95;;;0.85;;
27265;SDS011;14766;51.380;13.762;2022-09-23T12:49:51;1.50;;;0.95;;
27265;SDS011;14766;51.380;13.762;2022-09-23T12:55:42;1.48;;;0.90;;
27265;SDS011;14766;51.380;13.762;2022-09-23T12:57:43;2.35;;;1.20;;
27265;SDS011;14766;51.380;13.762;2022-09-23T13:00:20;1.10;;;1.00;;
27265;SDS011;14766;51.380;13.762;2022-09-23T13:02:56;1.33;;;1.20;;
27265;SDS011;14766;51.380;13.762;2022-09-23T13:05:57;1.55;;;1.27;;
27265;SDS011;14766;51.380;13.762;2022-09-23T13:08:46;1.90;;;1.63;;
27265;SDS011;14766;51.380;13.762;2022-09-23T13:11:21;1.60;;;1.10;;
27265;SDS011;14766;51.380;13.762;2022-09-23T13:13:54;1.13;;;1.02;;
27265;SDS011;14766;51.380;13.762;2022-09-23T13:16:29;1.83;;;1.10;;
27265;SDS011;14766;51.380;13.762;2022-09-23T13:19:56;1.00;;;0.90;;
27265;SDS011;14766;51.380;13.762;2022-09-23T13:21:59;0.90;;;0.80;;
27265;SDS011;14766;51.380;13.762;2022-09-23T13:24:36;1.13;;;1.00;;
27265;SDS011;14766;51.380;13.762;2022-09-23T13:30:05;1.55;;;1.10;;
27265;SDS011;14766;51.380;13.762;2022-09-23T13:33:10;1.80;;;0.90;;
27265;SDS011;14766;51.380;13.762;2022-09-23T13:35:43;1.20;;;1.10;;
27265;SDS011;14766;51.380;13.762;2022-09-23T13:38:20;1.95;;;0.90;;
27265;SDS011;14766;51.380;13.762;2022-09-23T13:43:26;1.45;;;0.90;;
27265;SDS011;14766;51.380;13.762;2022-09-23T13:46:08;1.58;;;1.10;;
27265;SDS011;14766;51.380;13.762;2022-09-23T13:48:45;1.23;;;1.13;;
27265;SDS011;14766;51.380;13.762;2022-09-23T13:51:19;1.45;;;0.93;;
27265;SDS011;14766;51.380;13.762;2022-09-23T13:53:52;1.80;;;1.00;;
27265;SDS011;14766;51.380;13.762;2022-09-23T13:56:23;1.30;;;1.20;;
27265;SDS011;14766;51.380;13.762;2022-09-23T13:58:52;1.00;;;0.90;;
27265;SDS011;14766;51.380;13.762;2022-09-23T14:01:29;2.60;;;1.20;;
27265;SDS011;14766;51.380;13.762;2022-09-23T14:04:00;1.60;;;1.20;;
27265;SDS011;14766;51.380;13.762;2022-09-23T14:06:28;2.08;;;1.40;;
27265;SDS011;14766;51.380;13.762;2022-09-23T14:08:58;1.40;;;1.10;;
27265;SDS011;14766;51.380;13.762;2022-09-23T14:11:31;1.27;;;1.00;;
27265;SDS011;14766;51.380;13.762;2022-09-23T14:14:02;0.85;;;0.80;;
27265;SDS011;14766;51.380;13.762;2022-09-23T14:16:37;1.20;;;1.10;;
27265;SDS011;14766;51.380;13.762;2022-09-23T14:19:11;1.48;;;1.00;;
27265;SDS011;14766;51.380;13.762;2022-09-23T14:21:45;1.52;;;0.90;;
27265;SDS011;14766;51.380;13.762;2022-09-23T14:24:16;2.38;;;1.15;;
27265;SDS011;14766;51.380;13.762;2022-09-23T14:26:55;2.40;;;1.52;;
27265;SDS011;14766;51.380;13.762;2022-09-23T14:29:30;1.33;;;1.15;;
27265;SDS011;14766;51.380;13.762;2022-09-23T14:32:05;1.55;;;0.90;;
27265;SDS011;14766;51.380;13.762;2022-09-23T14:39:58;1.20;;;0.88;;
27265;SDS011;14766;51.380;13.762;2022-09-23T14:42:26;2.17;;;0.77;;
27265;SDS011;14766;51.380;13.762;2022-09-23T14:44:55;1.05;;;0.70;;
27265;SDS011;14766;51.380;13.762;2022-09-23T14:47:28;2.63;;;1.83;;
27265;SDS011;14766;51.380;13.762;2022-09-23T14:49:57;1.07;;;0.90;;
27265;SDS011;14766;51.380;13.762;2022-09-23T14:55:16;1.00;;;0.90;;
27265;SDS011;14766;51.380;13.762;2022-09-23T14:57:44;1.65;;;0.77;;
27265;SDS011;14766;51.380;13.762;2022-09-23T15:00:18;1.33;;;1.15;;
27265;SDS011;14766;51.380;13.762;2022-09-23T15:02:56;2.45;;;0.88;;
27265;SDS011;14766;51.380;13.762;2022-09-23T15:05:44;1.05;;;0.80;;
27265;SDS011;14766;51.380;13.762;2022-09-23T15:08:17;0.98;;;0.82;;
27265;SDS011;14766;51.380;13.762;2022-09-23T15:10:49;1.35;;;1.00;;
27265;SDS011;14766;51.380;13.762;2022-09-23T15:13:17;2.60;;;0.90;;
27265;SDS011;14766;51.380;13.762;2022-09-23T15:15:50;1.02;;;0.90;;
27265;SDS011;14766;51.380;13.762;2022-09-23T15:18:23;2.95;;;1.27;;
27265;SDS011;14766;51.380;13.762;2022-09-23T15:20:56;1.42;;;1.33;;
27265;SDS011;14766;51.380;13.762;2022-09-23T15:26:21;1.30;;;1.00;;
27265;SDS011;14766;51.380;13.762;2022-09-23T15:28:50;1.25;;;0.90;;
27265;SDS011;14766;51.380;13.762;2022-09-23T15:31:24;2.20;;;1.10;;
27265;SDS011;14766;51.380;13.762;2022-09-23T15:33:52;5.82;;;1.13;;
27265;SDS011;14766;51.380;13.762;2022-09-23T15:36:25;1.30;;;0.85;;
27265;SDS011;14766;51.380;13.762;2022-09-23T15:38:54;2.28;;;1.40;;
27265;SDS011;14766;51.380;13.762;2022-09-23T15:41:22;6.30;;;3.88;;
27265;SDS011;14766;51.380;13.762;2022-09-23T15:43:50;6.20;;;4.43;;
27265;SDS011;14766;51.380;13.762;2022-09-23T15:46:26;10.93;;;6.40;;
27265;SDS011;14766;51.380;13.762;2022-09-23T15:48:59;6.20;;;4.07;;
27265;SDS011;14766;51.380;13.762;2022-09-23T15:51:30;5.07;;;4.10;;
27265;SDS011;14766;51.380;13.762;2022-09-23T15:53:57;3.40;;;2.58;;
27265;SDS011;14766;51.380;13.762;2022-09-23T15:56:24;2.92;;;2.00;;
27265;SDS011;14766;51.380;13.762;2022-09-23T15:58:54;7.88;;;3.50;;
27265;SDS011;14766;51.380;13.762;2022-09-23T16:01:28;4.43;;;2.15;;
27265;SDS011;14766;51.380;13.762;2022-09-23T16:06:27;2.65;;;1.30;;
27265;SDS011;14766;51.380;13.762;2022-09-23T16:08:55;2.90;;;2.13;;
27265;SDS011;14766;51.380;13.762;2022-09-23T16:11:23;3.05;;;1.83;;
27265;SDS011;14766;51.380;13.762;2022-09-23T16:13:53;2.97;;;2.15;;
27265;SDS011;14766;51.380;13.762;2022-09-23T16:16:20;3.60;;;2.70;;
27265;SDS011;14766;51.380;13.762;2022-09-23T16:18:47;10.05;;;5.85;;
27265;SDS011;14766;51.380;13.762;2022-09-23T16:21:20;10.65;;;6.22;;
27265;SDS011;14766;51.380;13.762;2022-09-23T16:23:50;8.52;;;5.10;;
27265;SDS011;14766;51.380;13.762;2022-09-23T16:26:19;4.47;;;3.33;;
27265;SDS011;14766;51.380;13.762;2022-09-23T16:28:52;4.70;;;2.92;;
27265;SDS011;14766;51.380;13.762;2022-09-23T16:31:21;7.38;;;5.07;;
27265;SDS011;14766;51.380;13.762;2022-09-23T16:33:51;8.02;;;5.90;;
27265;SDS011;14766;51.380;13.762;2022-09-23T16:38:54;8.50;;;4.88;;
27265;SDS011;14766;51.380;13.762;2022-09-23T16:41:22;16.02;;;7.35;;
27265;SDS011;14766;51.380;13.762;2022-09-23T16:43:50;14.27;;;6.35;;
27265;SDS011;14766;51.380;13.762;2022-09-23T16:46:19;12.68;;;4.75;;
27265;SDS011;14766;51.380;13.762;2022-09-23T16:48:46;6.30;;;3.22;;
27265;SDS011;14766;51.380;13.762;2022-09-23T16:51:19;7.03;;;3.25;;
27265;SDS011;14766;51.380;13.762;2022-09-23T16:53:47;7.13;;;3.97;;
27265;SDS011;14766;51.380;13.762;2022-09-23T16:56:17;8.20;;;4.25;;
27265;SDS011;14766;51.380;13.762;2022-09-23T16:58:52;7.82;;;3.90;;
27265;SDS011;14766;51.380;13.762;2022-09-23T17:01:22;6.07;;;3.58;;
27265;SDS011;14766;51.380;13.762;2022-09-23T17:04:09;19.10;;;8.00;;
27265;SDS011;14766;51.380;13.762;2022-09-23T17:06:46;23.55;;;11.18;;
27265;SDS011;14766;51.380;13.762;2022-09-23T17:09:16;25.63;;;11.68;;
27265;SDS011;14766;51.380;13.762;2022-09-23T17:11:44;15.68;;;8.95;;
27265;SDS011;14766;51.380;13.762;2022-09-23T17:14:14;10.98;;;6.13;;
27265;SDS011;14766;51.380;13.762;2022-09-23T17:16:41;12.48;;;6.07;;
27265;SDS011;14766;51.380;13.762;2022-09-23T17:19:10;6.22;;;3.78;;
27265;SDS011;14766;51.380;13.762;2022-09-23T17:21:37;7.28;;;4.05;;
27265;SDS011;14766;51.380;13.762;2022-09-23T17:24:05;6.13;;;4.32;;
27265;SDS011;14766;51.380;13.762;2022-09-23T17:26:33;4.68;;;3.00;;
27265;SDS011;14766;51.380;13.762;2022-09-23T17:29:00;3.15;;;2.40;;
27265;SDS011;14766;51.380;13.762;2022-09-23T17:31:27;3.58;;;2.63;;
27265;SDS011;14766;51.380;13.762;2022-09-23T17:33:56;2.83;;;2.20;;
27265;SDS011;14766;51.380;13.762;2022-09-23T17:36:24;2.00;;;1.80;;
27265;SDS011;14766;51.380;13.762;2022-09-23T17:38:53;2.00;;;1.70;;
27265;SDS011;14766;51.380;13.762;2022-09-23T17:41:20;1.83;;;1.48;;
27265;SDS011;14766;51.380;13.762;2022-09-23T17:43:52;1.75;;;1.45;;
27265;SDS011;14766;51.380;13.762;2022-09-23T17:46:22;2.90;;;1.85;;
27265;SDS011;14766;51.380;13.762;2022-09-23T17:48:49;2.25;;;1.75;;
27265;SDS011;14766;51.380;13.762;2022-09-23T17:51:20;2.42;;;1.80;;
27265;SDS011;14766;51.380;13.762;2022-09-23T17:53:48;2.85;;;1.83;;
27265;SDS011;14766;51.380;13.762;2022-09-23T17:58:45;3.15;;;1.90;;